Terminal Aerodrome Forecast
Issued by NWS

Home | Current Version | Previous Version | Text Only | Print | Product List | Glossary On
Versions: 1 2 3 4 5 6 7 8 9 10 11 12 13 14 15 16 17 18 19 20 21
000
FTUS41 KGYX 011720
TAFPSM
TAF
KPSM 011720Z 0118/0218 16007KT P6SM -SHRA BKN050 OVC080
     FM020100 11005KT P6SM SCT015 OVC025
     FM020600 VRB03KT 5SM -DZ BR BKN008 OVC012
     FM021300 05004KT 3SM -SHRA BR OVC004=

USA.gov is the U.S. government's official web portal to all federal, state and local government web resources and services.